Time;durP1;ratioP1;P1;durP2;ratioP2;P2;SDS_P1;SDS_P2;PMS_P1;PMS_P2;Temp;Humidity;BMP_temperature;BMP_pressure;BME280_temperature;BME280_humidity;BME280_pressure;Samples;Min_cycle;Max_cycle;Signal;HPM_P1;HPM_P2
2022/12/18 00:02:17;;;;;;;201.27;58.67;;;-3.80;99.90;;;;;;5027247;28;20041;-62
2022/12/18 00:04:42;;;;;;;210.48;63.20;;;-3.50;99.90;;;;;;5046375;28;20033;-63
2022/12/18 00:07:08;;;;;;;235.93;69.45;;;-3.60;99.90;;;;;;5045256;28;20029;-62
2022/12/18 00:09:34;;;;;;;199.45;59.72;;;-3.30;99.90;;;;;;5046822;28;20044;-62
2022/12/18 00:12:00;;;;;;;199.70;63.83;;;-4.00;99.90;;;;;;5046834;28;20064;-63
2022/12/18 00:14:25;;;;;;;201.82;61.53;;;-3.10;99.90;;;;;;5046478;28;20489;-61
2022/12/18 00:16:51;;;;;;;153.50;48.78;;;-3.50;99.90;;;;;;5045696;28;20275;-61
2022/12/18 00:19:17;;;;;;;177.60;53.58;;;-3.10;99.90;;;;;;5044708;28;20049;-62
2022/12/18 00:21:43;;;;;;;202.60;62.85;;;-3.90;99.90;;;;;;5043439;28;20279;-61
2022/12/18 00:24:10;;;;;;;195.45;55.67;;;-3.40;99.90;;;;;;5044019;28;20047;-61
2022/12/18 00:26:38;;;;;;;199.27;62.88;;;-3.20;99.90;;;;;;5046617;28;20064;-61
2022/12/18 00:29:21;;;;;;;207.23;58.63;;;-4.20;99.90;;;;;;5045254;28;20047;-62
2022/12/18 00:31:47;;;;;;;185.88;57.05;;;-4.20;99.90;;;;;;5044130;28;20086;-61
2022/12/18 00:34:13;;;;;;;193.25;61.80;;;-3.20;99.90;;;;;;5045329;28;20049;-61
2022/12/18 00:36:40;;;;;;;189.85;55.58;;;-3.40;99.90;;;;;;5074470;28;20450;-62
2022/12/18 00:39:06;;;;;;;188.48;55.50;;;-4.00;99.90;;;;;;5043757;28;20033;-61
2022/12/18 00:44:18;;;;;;;192.85;59.22;;;-4.00;99.90;;;;;;5044881;28;20040;-62
2022/12/18 00:46:45;;;;;;;205.13;60.22;;;-4.00;99.90;;;;;;5043822;28;20029;-62
2022/12/18 00:49:12;;;;;;;194.57;58.10;;;-3.50;99.90;;;;;;5044380;28;20049;-61
2022/12/18 00:51:37;;;;;;;174.07;55.17;;;-4.20;99.90;;;;;;5025329;28;20240;-63
2022/12/18 00:54:03;;;;;;;192.30;60.08;;;-4.10;99.90;;;;;;5045290;28;20049;-62
2022/12/18 00:56:29;;;;;;;199.55;61.45;;;-3.40;99.90;;;;;;5045832;28;20094;-62
2022/12/18 00:58:55;;;;;;;162.98;48.95;;;-4.00;99.90;;;;;;5026977;28;20422;-62
2022/12/18 01:01:20;;;;;;;182.80;55.70;;;-3.40;99.90;;;;;;5044215;28;20364;-63
2022/12/18 01:03:46;;;;;;;195.73;63.08;;;-4.20;99.90;;;;;;5028383;28;20094;-62
2022/12/18 01:06:13;;;;;;;168.15;54.47;;;-4.20;99.90;;;;;;5044129;28;20123;-61
2022/12/18 01:08:39;;;;;;;164.13;53.85;;;-3.60;99.90;;;;;;5043790;28;20700;-61
2022/12/18 01:11:10;;;;;;;170.75;56.42;;;-4.30;99.90;;;;;;5045265;28;20045;-62
2022/12/18 01:13:36;;;;;;;148.88;48.67;;;-4.30;99.90;;;;;;5044080;28;20070;-62
2022/12/18 01:16:02;;;;;;;161.18;54.33;;;-3.90;99.90;;;;;;5044668;28;20477;-62
2022/12/18 01:18:27;;;;;;;163.23;55.58;;;-4.20;99.90;;;;;;5058171;28;20255;-62
2022/12/18 01:20:53;;;;;;;161.55;51.67;;;-4.40;99.90;;;;;;5043387;28;21114;-61
2022/12/18 01:23:19;;;;;;;173.10;54.22;;;-4.30;99.90;;;;;;5026786;28;20479;-62
2022/12/18 01:25:45;;;;;;;173.48;57.35;;;-3.70;99.90;;;;;;5045690;28;20068;-63
2022/12/18 01:28:10;;;;;;;148.02;50.33;;;-3.50;99.90;;;;;;5044315;28;20145;-62
2022/12/18 01:30:37;;;;;;;184.10;59.33;;;-4.00;99.90;;;;;;5045180;28;20025;-62
2022/12/18 01:33:04;;;;;;;179.68;57.80;;;-3.50;99.90;;;;;;5043111;28;20055;-62
2022/12/18 01:35:30;;;;;;;171.32;56.33;;;-4.30;99.90;;;;;;5043866;28;20554;-61
2022/12/18 01:37:56;;;;;;;160.73;53.80;;;-4.20;99.90;;;;;;5041215;28;20431;-63
2022/12/18 01:40:22;;;;;;;179.65;60.95;;;-4.30;99.90;;;;;;5027357;28;20040;-61
2022/12/18 01:42:52;;;;;;;173.25;57.35;;;-4.30;99.90;;;;;;5044336;28;20449;-61
2022/12/18 01:45:18;;;;;;;164.43;54.95;;;-4.50;99.90;;;;;;5057123;28;20052;-62
2022/12/18 01:47:48;;;;;;;150.73;51.63;;;-4.00;99.90;;;;;;5029285;28;20432;-62
2022/12/18 01:50:38;;;;;;;145.80;49.58;;;-3.80;99.90;;;;;;5048373;28;20037;-63
2022/12/18 01:53:21;;;;;;;155.93;52.20;;;-4.50;99.90;;;;;;5047026;28;20041;-62
2022/12/18 01:55:52;;;;;;;;;;;-3.90;99.90;;;;;;5031987;28;20516;-63
2022/12/18 01:58:19;;;;;;;168.68;54.40;;;-4.70;99.90;;;;;;5029439;28;19959;-63
2022/12/18 02:00:45;;;;;;;161.13;53.47;;;-4.80;99.90;;;;;;5039478;28;20045;-62
2022/12/18 02:03:11;;;;;;;172.50;57.30;;;-4.10;99.90;;;;;;5039647;28;20497;-62
2022/12/18 02:05:44;;;;;;;174.95;57.75;;;-4.10;99.90;;;;;;5023277;28;20040;-62
2022/12/18 02:08:21;;;;;;;200.02;61.67;;;-4.80;99.90;;;;;;5020214;28;20036;-63
2022/12/18 02:11:10;;;;;;;196.60;61.17;;;-4.50;99.90;;;;;;5039407;28;20049;-64
2022/12/18 02:13:49;;;;;;;198.13;55.40;;;-4.80;99.90;;;;;;5040956;28;20048;-63
2022/12/18 02:16:26;;;;;;;211.55;61.88;;;-4.80;99.90;;;;;;5038697;28;20044;-63
2022/12/18 02:18:59;;;;;;;218.57;59.90;;;-4.20;99.90;;;;;;5040255;28;20091;-62
2022/12/18 02:21:24;;;;;;;193.70;51.30;;;-4.10;99.90;;;;;;5040517;28;20120;-62
2022/12/18 02:23:56;;;;;;;213.98;58.38;;;-4.10;99.90;;;;;;5037767;28;20489;-62
2022/12/18 02:26:36;;;;;;;202.98;52.35;;;-4.10;99.90;;;;;;5015745;28;20128;-62
2022/12/18 02:29:16;;;;;;;188.52;54.58;;;-4.10;99.90;;;;;;5040711;28;20124;-64
2022/12/18 02:31:53;;;;;;;200.52;58.67;;;-4.80;99.90;;;;;;5037346;28;20040;-63
2022/12/18 02:34:25;;;;;;;178.52;54.30;;;-4.30;99.90;;;;;;5039384;28;20076;-62
2022/12/18 02:36:54;;;;;;;175.32;52.97;;;-4.20;99.90;;;;;;5039016;28;20052;-62
2022/12/18 02:39:21;;;;;;;193.65;58.60;;;-4.20;99.90;;;;;;5039050;28;20049;-62
2022/12/18 02:41:48;;;;;;;193.45;57.47;;;-4.20;99.90;;;;;;5036262;28;20041;-62
2022/12/18 02:44:14;;;;;;;191.88;59.95;;;-4.30;99.90;;;;;;5039432;28;20493;-63
2022/12/18 02:46:46;;;;;;;165.95;48.60;;;-5.00;99.90;;;;;;5037764;28;20063;-63
2022/12/18 02:49:24;;;;;;;196.45;56.88;;;-4.50;99.90;;;;;;5039288;28;20107;-63
2022/12/18 02:52:00;;;;;;;194.73;56.05;;;-4.30;99.90;;;;;;5039222;28;20033;-62
2022/12/18 02:54:47;;;;;;;180.32;50.53;;;-4.50;99.90;;;;;;5038963;28;20280;-62
2022/12/18 02:57:15;;;;;;;216.75;58.65;;;-4.90;99.90;;;;;;5037580;28;20279;-63
2022/12/18 02:59:53;;;;;;;232.02;63.67;;;-4.90;99.90;;;;;;5040536;28;20043;-63
2022/12/18 03:02:28;;;;;;;226.75;60.92;;;-4.30;99.90;;;;;;5036722;28;20289;-62
2022/12/18 03:05:07;;;;;;;179.13;50.63;;;-4.90;99.90;;;;;;5040111;28;20103;-62
2022/12/18 03:07:42;;;;;;;255.18;69.18;;;-4.50;99.90;;;;;;5039120;28;20033;-62
2022/12/18 03:10:13;;;;;;;242.10;64.57;;;-4.90;99.90;;;;;;5020815;28;20407;-63
2022/12/18 03:12:46;;;;;;;234.05;65.00;;;-4.70;99.90;;;;;;5036776;28;20080;-64
2022/12/18 03:15:12;;;;;;;;;;;-4.50;99.90;;;;;;5039055;28;20080;-62
2022/12/18 03:17:40;;;;;;;241.13;67.90;;;-4.30;99.90;;;;;;5036850;28;19967;-62
2022/12/18 03:20:12;;;;;;;229.75;63.47;;;-4.80;99.90;;;;;;5038576;28;20118;-64
2022/12/18 03:22:39;;;;;;;223.02;58.90;;;-4.20;99.90;;;;;;5038053;28;20037;-64
2022/12/18 03:25:11;;;;;;;243.30;71.72;;;-4.40;99.90;;;;;;5036584;28;20384;-62
2022/12/18 03:27:41;;;;;;;231.38;67.43;;;-4.40;99.90;;;;;;5038086;28;20098;-63
2022/12/18 03:30:10;;;;;;;226.77;69.10;;;-4.70;99.90;;;;;;5018236;28;20299;-63
2022/12/18 03:32:42;;;;;;;200.57;64.78;;;-4.20;99.90;;;;;;5036562;28;20376;-62
2022/12/18 03:35:11;;;;;;;193.80;54.90;;;-4.40;99.90;;;;;;5039466;28;20491;-63
2022/12/18 03:37:38;;;;;;;200.80;63.17;;;-4.40;99.90;;;;;;5038973;28;20045;-63
2022/12/18 03:40:05;;;;;;;201.93;65.63;;;-5.00;99.90;;;;;;5036817;28;20132;-63
2022/12/18 03:42:49;;;;;;;192.48;60.85;;;-4.60;99.90;;;;;;5037797;28;20037;-63
2022/12/18 03:45:35;;;;;;;181.02;60.45;;;-4.40;99.90;;;;;;5033273;28;20049;-62
2022/12/18 03:48:07;;;;;;;188.20;64.00;;;-4.50;99.90;;;;;;5036190;28;20059;-62
2022/12/18 03:51:01;;;;;;;183.25;65.25;;;-4.70;99.90;;;;;;5038106;28;20299;-64
2022/12/18 03:53:48;;;;;;;148.40;47.28;;;-4.70;99.90;;;;;;5037858;28;20443;-64
2022/12/18 03:56:16;;;;;;;170.13;58.83;;;-5.20;99.90;;;;;;5035890;28;20089;-62
2022/12/18 03:58:45;;;;;;;164.25;54.97;;;-5.00;99.90;;;;;;5014884;28;20398;-61
2022/12/18 04:01:14;;;;;;;160.70;56.55;;;-4.80;99.90;;;;;;5036606;28;20136;-62
2022/12/18 04:03:42;;;;;;;141.73;52.72;;;-4.80;99.90;;;;;;5037611;28;20055;-63
2022/12/18 04:06:09;;;;;;;142.90;53.15;;;-5.10;99.90;;;;;;5037944;28;20557;-63
2022/12/18 04:08:35;;;;;;;150.25;58.50;;;-5.20;99.90;;;;;;5037675;28;20102;-63
2022/12/18 04:11:02;;;;;;;145.23;55.30;;;-5.20;99.90;;;;;;5037205;28;20788;-62
2022/12/18 04:13:31;;;;;;;143.63;53.80;;;-5.10;99.90;;;;;;5038552;28;20410;-64
2022/12/18 04:15:57;;;;;;;148.90;57.95;;;-5.30;99.90;;;;;;5035300;28;20047;-62
2022/12/18 04:18:23;;;;;;;149.85;56.55;;;-4.90;99.90;;;;;;5038845;28;20116;-62
2022/12/18 04:20:48;;;;;;;160.52;59.47;;;-5.00;99.90;;;;;;5037371;28;20047;-62
2022/12/18 04:23:14;;;;;;;153.55;53.90;;;-5.00;99.90;;;;;;5037519;28;20075;-63
2022/12/18 04:25:40;;;;;;;159.50;59.40;;;-5.10;99.90;;;;;;5004425;28;20291;-62
2022/12/18 04:28:05;;;;;;;163.57;58.13;;;-5.10;99.90;;;;;;5037809;28;20033;-62
2022/12/18 04:30:31;;;;;;;152.27;56.88;;;-5.30;99.90;;;;;;5020601;28;20048;-62
2022/12/18 04:32:57;;;;;;;155.02;56.78;;;-5.30;99.90;;;;;;5001514;28;20055;-63
2022/12/18 04:35:22;;;;;;;128.68;48.75;;;-5.30;99.90;;;;;;5035818;28;20084;-62
2022/12/18 04:37:48;;;;;;;144.45;53.53;;;-5.40;99.90;;;;;;5036779;28;20534;-63
2022/12/18 04:40:14;;;;;;;158.63;59.50;;;-5.60;99.90;;;;;;5039314;28;20083;-62
2022/12/18 04:42:40;;;;;;;151.00;54.97;;;-5.30;99.90;;;;;;5036125;28;20396;-62
2022/12/18 04:45:07;;;;;;;155.00;57.15;;;-5.40;99.90;;;;;;5038001;28;20049;-63
2022/12/18 04:47:32;;;;;;;143.02;52.40;;;-5.70;99.90;;;;;;5018320;28;20087;-62
2022/12/18 04:49:58;;;;;;;132.43;51.78;;;-5.60;99.90;;;;;;5036695;28;20483;-62
2022/12/18 04:52:24;;;;;;;144.82;55.53;;;-5.60;99.90;;;;;;5068864;28;20063;-63
2022/12/18 04:54:50;;;;;;;133.18;49.45;;;-5.50;99.90;;;;;;5004481;28;20488;-63
2022/12/18 04:57:17;;;;;;;128.50;50.60;;;-5.70;99.90;;;;;;5036871;28;20126;-62
2022/12/18 04:59:44;;;;;;;124.65;51.03;;;-5.80;99.90;;;;;;5020406;28;20045;-62
2022/12/18 05:02:10;;;;;;;129.27;49.55;;;-5.60;99.90;;;;;;5020229;28;20048;-63
2022/12/18 05:04:35;;;;;;;112.82;44.28;;;-5.70;99.90;;;;;;5035456;28;20035;-63
2022/12/18 05:07:01;;;;;;;110.10;47.70;;;-5.90;99.90;;;;;;5019375;28;20617;-62
2022/12/18 05:09:26;;;;;;;113.55;47.40;;;-5.90;99.90;;;;;;5038338;28;20064;-62
2022/12/18 05:11:52;;;;;;;100.70;41.28;;;-5.70;99.90;;;;;;5037246;28;20048;-62
2022/12/18 05:14:18;;;;;;;107.78;43.50;;;-6.00;99.90;;;;;;5036182;28;20493;-62
2022/12/18 05:16:44;;;;;;;109.82;44.78;;;-5.80;99.90;;;;;;5036667;28;20217;-63
2022/12/18 05:19:09;;;;;;;102.07;42.35;;;-6.00;99.90;;;;;;5033800;28;20045;-63
2022/12/18 05:21:35;;;;;;;103.85;46.38;;;-6.00;99.90;;;;;;5021361;28;20380;-63
2022/12/18 05:24:01;;;;;;;95.40;43.05;;;-6.10;99.90;;;;;;5041877;28;20041;-63
2022/12/18 05:26:26;;;;;;;96.38;41.45;;;-6.00;99.90;;;;;;5042713;28;20044;-64
2022/12/18 05:28:52;;;;;;;100.72;47.72;;;-6.10;99.90;;;;;;5039100;28;21117;-63
2022/12/18 05:31:17;;;;;;;92.13;40.63;;;-5.90;99.90;;;;;;5042887;28;20284;-62
2022/12/18 05:33:43;;;;;;;92.32;44.03;;;-5.90;99.90;;;;;;5017194;28;20041;-63
2022/12/18 05:36:10;;;;;;;93.43;43.22;;;-6.00;99.90;;;;;;5016985;28;20493;-63
2022/12/18 05:38:37;;;;;;;98.05;42.95;;;-6.00;99.90;;;;;;5040775;28;20052;-63
2022/12/18 05:41:04;;;;;;;100.03;42.47;;;-6.10;99.90;;;;;;5024335;28;20574;-62
2022/12/18 05:43:30;;;;;;;88.65;39.75;;;-6.10;99.90;;;;;;5055678;28;20044;-62
2022/12/18 05:45:57;;;;;;;90.22;43.55;;;-5.90;99.90;;;;;;5039656;28;20055;-62
2022/12/18 05:48:23;;;;;;;89.15;40.70;;;-6.20;99.90;;;;;;5040516;28;20098;-63
2022/12/18 05:50:50;;;;;;;76.28;33.50;;;-6.10;99.90;;;;;;5037854;28;20888;-63
2022/12/18 05:53:19;;;;;;;91.15;40.58;;;-5.90;99.90;;;;;;5038681;28;20820;-62
2022/12/18 05:55:45;;;;;;;84.45;37.42;;;-6.10;99.90;;;;;;5040006;28;20079;-62
2022/12/18 05:58:12;;;;;;;82.32;37.08;;;-6.20;99.90;;;;;;5041908;28;20124;-62
2022/12/18 06:00:44;;;;;;;73.05;32.17;;;-6.10;99.90;;;;;;5040162;28;20128;-62
2022/12/18 06:03:11;;;;;;;70.95;32.35;;;-6.20;99.90;;;;;;5041647;28;20041;-63
2022/12/18 06:05:39;;;;;;;83.07;36.83;;;-6.00;99.90;;;;;;5039813;28;20044;-63
2022/12/18 06:08:05;;;;;;;89.70;40.60;;;-6.10;99.90;;;;;;5037710;28;20083;-62
2022/12/18 06:10:31;;;;;;;79.45;37.47;;;-6.10;99.90;;;;;;5040421;28;20407;-63
2022/12/18 06:12:56;;;;;;;76.75;33.47;;;-5.90;99.90;;;;;;5041654;28;20407;-62
2022/12/18 06:15:22;;;;;;;69.07;33.97;;;-6.00;99.90;;;;;;5039807;28;20051;-63
2022/12/18 06:17:48;;;;;;;65.72;31.25;;;-6.00;99.90;;;;;;5041541;28;20178;-62
2022/12/18 06:20:14;;;;;;;74.43;34.53;;;-6.00;99.90;;;;;;5023602;28;20331;-62
2022/12/18 06:22:39;;;;;;;78.90;36.88;;;-6.00;99.90;;;;;;5035755;28;20056;-62
2022/12/18 06:25:05;;;;;;;75.95;36.53;;;-6.00;99.90;;;;;;5023104;28;20036;-62
2022/12/18 06:27:33;;;;;;;72.00;34.03;;;-6.20;99.90;;;;;;5040162;28;20115;-62
2022/12/18 06:29:59;;;;;;;78.60;33.60;;;-6.10;99.90;;;;;;5040996;28;20084;-62
2022/12/18 06:32:25;;;;;;;73.15;34.35;;;-6.30;99.90;;;;;;5021551;28;20048;-62
2022/12/18 06:34:51;;;;;;;74.13;33.40;;;-6.20;99.90;;;;;;5040681;28;20037;-62
2022/12/18 06:37:16;;;;;;;70.40;33.08;;;-6.30;99.90;;;;;;5038998;28;20044;-62
2022/12/18 06:39:42;;;;;;;68.57;33.95;;;-6.30;99.90;;;;;;5018633;28;20524;-62
2022/12/18 06:42:11;;;;;;;68.88;31.85;;;-6.30;99.90;;;;;;5040002;28;20072;-63
2022/12/18 06:44:37;;;;;;;76.50;32.70;;;-6.30;99.90;;;;;;5022861;28;20075;-63
2022/12/18 06:47:03;;;;;;;76.18;35.05;;;-6.20;99.90;;;;;;5037596;28;20040;-63
2022/12/18 06:49:29;;;;;;;77.38;35.60;;;-6.30;99.90;;;;;;5039662;28;20473;-62
2022/12/18 06:51:54;;;;;;;70.63;32.20;;;-6.40;99.90;;;;;;5039226;28;20041;-62
2022/12/18 06:54:20;;;;;;;68.75;33.15;;;-6.50;99.90;;;;;;5018311;28;20084;-62
2022/12/18 06:56:46;;;;;;;67.03;33.10;;;-6.40;99.90;;;;;;5038479;28;20040;-62
2022/12/18 06:59:14;;;;;;;59.63;28.95;;;-6.20;99.90;;;;;;5071543;28;20095;-61
2022/12/18 07:01:40;;;;;;;56.80;27.65;;;-6.40;99.90;;;;;;5041014;28;20045;-60
2022/12/18 07:04:07;;;;;;;65.65;31.30;;;-6.40;99.90;;;;;;5014592;28;20564;-61
2022/12/18 07:06:33;;;;;;;61.72;31.85;;;-6.40;99.90;;;;;;5049937;28;20036;-62
2022/12/18 07:08:58;;;;;;;63.05;31.38;;;-6.30;99.90;;;;;;5039984;28;20442;-63
2022/12/18 07:11:24;;;;;;;62.38;30.05;;;-6.30;99.90;;;;;;5018688;28;20549;-64
2022/12/18 07:13:50;;;;;;;71.43;31.77;;;-6.20;99.90;;;;;;5022545;28;20041;-62
2022/12/18 07:16:20;;;;;;;60.10;26.90;;;-6.30;99.90;;;;;;5006088;28;20048;-63
2022/12/18 07:18:46;;;;;;;57.75;26.27;;;-6.20;99.90;;;;;;5038877;28;20186;-63
2022/12/18 07:21:16;;;;;;;61.03;30.85;;;-6.30;99.90;;;;;;5023055;28;20044;-62
2022/12/18 07:23:42;;;;;;;60.53;31.25;;;-6.30;99.90;;;;;;5016070;28;20041;-63
2022/12/18 07:26:10;;;;;;;59.42;30.92;;;-6.30;99.90;;;;;;5014374;28;20049;-62
2022/12/18 07:28:37;;;;;;;56.47;28.90;;;-6.30;99.90;;;;;;5071014;28;20029;-63
2022/12/18 07:31:07;;;;;;;56.78;29.60;;;-6.40;99.90;;;;;;5038247;28;20052;-62
2022/12/18 07:33:34;;;;;;;60.70;29.98;;;-6.30;99.90;;;;;;5037410;28;20041;-63
2022/12/18 07:36:00;;;;;;;60.10;30.25;;;-6.30;99.90;;;;;;5022993;28;20056;-62
2022/12/18 07:38:26;;;;;;;56.25;29.85;;;-6.40;99.90;;;;;;5028786;28;20049;-62
2022/12/18 07:40:52;;;;;;;55.22;30.80;;;-6.30;99.90;;;;;;5038027;28;20594;-61
2022/12/18 07:43:18;;;;;;;56.85;30.55;;;-6.40;99.90;;;;;;5019497;28;20041;-63
2022/12/18 07:45:44;;;;;;;59.83;31.02;;;-6.40;99.90;;;;;;5038921;28;20407;-63
2022/12/18 07:48:10;;;;;;;58.75;30.98;;;-6.40;99.90;;;;;;5037374;28;20118;-63
2022/12/18 07:50:36;;;;;;;57.58;31.20;;;-6.30;99.90;;;;;;5037647;28;20390;-62
2022/12/18 07:53:04;;;;;;;56.80;30.65;;;-6.30;99.90;;;;;;5038128;28;20087;-63
2022/12/18 07:55:31;;;;;;;52.08;27.80;;;-6.40;99.90;;;;;;5045013;28;20047;-61
2022/12/18 07:58:00;;;;;;;48.15;26.75;;;-6.40;99.90;;;;;;5021383;28;20041;-63
2022/12/18 08:00:25;;;;;;;53.65;28.35;;;-6.40;99.90;;;;;;5068678;28;20045;-63
2022/12/18 08:02:51;;;;;;;49.83;25.55;;;-6.30;99.90;;;;;;5022639;28;20224;-63
2022/12/18 08:05:17;;;;;;;51.85;25.23;;;-6.30;99.90;;;;;;5043529;28;20037;-63
2022/12/18 08:07:43;;;;;;;49.38;26.02;;;-6.40;99.90;;;;;;5021432;28;20521;-63
2022/12/18 08:10:09;;;;;;;51.30;24.80;;;-6.30;99.90;;;;;;5038770;28;20503;-61
2022/12/18 08:12:35;;;;;;;51.35;28.10;;;-6.10;99.90;;;;;;5038030;28;20097;-62
2022/12/18 08:15:00;;;;;;;51.13;27.80;;;-6.20;99.90;;;;;;5035186;28;20463;-64
2022/12/18 08:17:26;;;;;;;44.78;24.45;;;-6.20;99.90;;;;;;5007358;28;20120;-61
2022/12/18 08:19:52;;;;;;;51.38;26.60;;;-6.10;99.90;;;;;;5030430;28;20036;-63
2022/12/18 08:22:18;;;;;;;49.08;25.55;;;-6.10;99.90;;;;;;5023047;28;20045;-62
2022/12/18 08:24:44;;;;;;;51.42;27.13;;;-6.10;99.90;;;;;;5039453;28;20041;-62
2022/12/18 08:27:10;;;;;;;49.35;26.65;;;-6.10;99.90;;;;;;5019015;28;20084;-64
2022/12/18 08:29:35;;;;;;;49.70;25.65;;;-6.10;99.90;;;;;;5033797;28;20128;-63
2022/12/18 08:32:01;;;;;;;46.85;24.48;;;-6.00;99.90;;;;;;5019030;28;21144;-62
2022/12/18 08:34:27;;;;;;;47.47;25.48;;;-6.00;99.90;;;;;;4985812;28;20055;-64
2022/12/18 08:36:53;;;;;;;46.88;25.75;;;-6.00;99.90;;;;;;5036578;28;20059;-63
2022/12/18 08:39:18;;;;;;;44.70;24.85;;;-5.90;99.90;;;;;;5037562;28;20715;-63
2022/12/18 08:44:37;;;;;;;47.22;25.88;;;-5.90;99.90;;;;;;5075079;28;20044;-61
2022/12/18 08:44:38;;;;;;;46.80;26.60;;;-5.80;99.90;;;;;;5046236;28;20064;-61
2022/12/18 08:47:05;;;;;;;43.97;25.58;;;-5.70;99.90;;;;;;5046513;28;20338;-60
2022/12/18 08:49:31;;;;;;;45.20;24.50;;;-5.60;99.90;;;;;;5045955;28;20033;-62
2022/12/18 08:51:57;;;;;;;42.75;23.52;;;-5.50;99.90;;;;;;5028299;28;20044;-60
2022/12/18 08:54:24;;;;;;;42.25;24.17;;;-5.40;99.90;;;;;;5029229;28;20046;-61
2022/12/18 08:56:50;;;;;;;43.83;23.20;;;-5.50;99.90;;;;;;5045272;28;20041;-63
2022/12/18 08:59:17;;;;;;;39.72;23.30;;;-5.40;99.90;;;;;;5029672;28;20559;-61
2022/12/18 09:01:43;;;;;;;38.60;22.73;;;-5.30;99.90;;;;;;5043844;28;20037;-61
2022/12/18 09:04:13;;;;;;;36.67;21.70;;;-5.20;99.90;;;;;;5040796;28;20083;-63
2022/12/18 09:06:39;;;;;;;37.25;22.88;;;-5.20;99.90;;;;;;5035594;28;20052;-63
2022/12/18 09:09:06;;;;;;;37.97;19.60;;;-5.00;99.90;;;;;;5034391;28;20041;-63
2022/12/18 09:11:33;;;;;;;28.60;16.38;;;-5.00;99.90;;;;;;5035067;28;20079;-63
2022/12/18 09:14:01;;;;;;;37.20;20.08;;;-4.90;99.90;;;;;;5034721;28;20353;-62
2022/12/18 09:16:28;;;;;;;37.40;20.48;;;-4.90;99.90;;;;;;5034385;28;20049;-63
2022/12/18 09:19:01;;;;;;;36.17;20.40;;;-4.70;99.90;;;;;;5036715;28;20055;-63
2022/12/18 09:21:32;;;;;;;31.75;18.95;;;-4.80;99.90;;;;;;5034188;28;20045;-63
2022/12/18 09:23:58;;;;;;;31.50;19.35;;;-4.70;99.90;;;;;;5036492;28;20049;-63
2022/12/18 09:26:25;;;;;;;30.02;18.33;;;-4.70;99.90;;;;;;5036882;28;20109;-63
2022/12/18 09:28:52;;;;;;;29.10;17.95;;;-4.60;99.90;;;;;;5042157;28;20064;-61
2022/12/18 09:31:20;;;;;;;29.25;18.60;;;-4.50;99.90;;;;;;5075638;28;20144;-62
2022/12/18 09:33:46;;;;;;;35.08;20.08;;;-4.50;99.90;;;;;;5074703;28;20052;-62
2022/12/18 09:36:14;;;;;;;30.80;20.25;;;-4.50;99.90;;;;;;5042854;28;20507;-63
2022/12/18 09:38:40;;;;;;;31.55;19.42;;;-4.50;99.90;;;;;;5042656;28;20063;-62
2022/12/18 09:41:23;;;;;;;30.17;18.70;;;-4.40;99.90;;;;;;5044748;28;20461;-62
2022/12/18 09:43:55;;;;;;;35.03;19.60;;;-4.30;99.90;;;;;;5043855;28;20152;-62
2022/12/18 09:46:44;;;;;;;28.10;17.55;;;-4.30;99.90;;;;;;5041810;28;20124;-62
2022/12/18 09:49:15;;;;;;;28.95;18.13;;;-4.20;99.90;;;;;;5042235;28;20045;-61
2022/12/18 09:51:49;;;;;;;28.20;15.98;;;-4.20;99.90;;;;;;5043852;28;20143;-62
2022/12/18 09:54:21;;;;;;;29.00;17.23;;;-4.00;99.90;;;;;;5041386;28;20048;-60
2022/12/18 09:56:47;;;;;;;24.25;15.50;;;-4.00;99.90;;;;;;5042499;28;20135;-62
2022/12/18 09:59:30;;;;;;;22.77;15.50;;;-3.90;99.90;;;;;;5042562;28;20052;-61
2022/12/18 10:01:56;;;;;;;21.90;14.43;;;-3.90;99.90;;;;;;5042120;28;20041;-61
2022/12/18 10:04:23;;;;;;;26.75;15.13;;;-3.80;99.90;;;;;;5042055;28;20040;-60
2022/12/18 10:07:03;;;;;;;23.73;14.55;;;-3.70;99.90;;;;;;5044782;28;20071;-61
2022/12/18 10:09:54;;;;;;;22.08;14.32;;;-3.70;99.90;;;;;;5047601;28;20511;-62
2022/12/18 10:12:28;;;;;;;23.20;13.32;;;-3.60;99.90;;;;;;5042476;28;20546;-62
2022/12/18 10:15:06;;;;;;;22.20;13.75;;;-3.40;99.90;;;;;;5042489;28;20106;-63
2022/12/18 10:17:54;;;;;;;18.60;11.80;;;-3.10;99.90;;;;;;5026160;28;20547;-62
2022/12/18 10:20:29;;;;;;;17.30;11.85;;;-2.50;99.90;;;;;;5036598;28;20045;-63
2022/12/18 10:23:22;;;;;;;20.52;12.93;;;-1.80;99.90;;;;;;5038301;28;20063;-63
2022/12/18 10:25:54;;;;;;;15.73;10.48;;;-1.10;99.90;;;;;;5039788;28;20543;-63
2022/12/18 10:28:21;;;;;;;15.60;10.73;;;-0.40;99.90;;;;;;5041683;28;20078;-63
2022/12/18 10:30:47;;;;;;;14.88;10.95;;;0.00;99.90;;;;;;5040157;28;20041;-62
2022/12/18 10:33:21;;;;;;;14.10;9.38;;;0.30;99.90;;;;;;5041209;28;20091;-63
2022/12/18 10:35:51;;;;;;;14.10;9.18;;;0.80;99.90;;;;;;5037227;28;20044;-63
2022/12/18 10:38:16;;;;;;;12.95;8.75;;;1.30;99.90;;;;;;5038395;28;20039;-63
2022/12/18 10:41:05;;;;;;;13.35;9.60;;;1.60;99.90;;;;;;5037275;28;20066;-64
2022/12/18 10:43:33;;;;;;;13.00;9.18;;;1.30;99.90;;;;;;5020954;28;20120;-64
2022/12/18 10:46:07;;;;;;;13.90;9.35;;;0.90;99.90;;;;;;5039463;28;20033;-63
2022/12/18 10:48:37;;;;;;;13.63;8.55;;;0.60;99.90;;;;;;5037361;28;20048;-63
2022/12/18 10:51:03;;;;;;;12.70;9.18;;;0.60;99.90;;;;;;5022199;28;20052;-63
2022/12/18 10:53:32;;;;;;;13.63;9.25;;;0.40;99.90;;;;;;5038212;28;20149;-63
2022/12/18 10:56:04;;;;;;;12.23;8.32;;;0.50;99.90;;;;;;5053097;28;20282;-64
2022/12/18 10:58:35;;;;;;;11.40;8.57;;;0.30;99.90;;;;;;5041410;28;20048;-63
2022/12/18 11:01:19;;;;;;;14.30;9.15;;;0.10;99.90;;;;;;5040791;28;20388;-64
2022/12/18 11:03:47;;;;;;;13.10;8.65;;;-0.40;99.90;;;;;;5069693;28;20058;-63
2022/12/18 11:06:18;;;;;;;13.00;8.95;;;-0.70;99.90;;;;;;5039788;28;20559;-64
2022/12/18 11:08:57;;;;;;;15.50;9.90;;;-0.90;99.90;;;;;;5019903;28;20114;-63
2022/12/18 11:11:24;;;;;;;13.35;8.52;;;-1.10;99.90;;;;;;5034515;28;20045;-64
2022/12/18 11:14:01;;;;;;;13.80;8.48;;;-1.20;99.90;;;;;;5039222;28;20159;-61
2022/12/18 11:16:30;;;;;;;16.35;9.55;;;-1.30;99.90;;;;;;5019382;28;20040;-64
2022/12/18 11:19:12;;;;;;;11.80;6.45;;;-1.40;99.90;;;;;;5065271;28;20923;-63
2022/12/18 11:21:42;;;;;;;14.88;9.23;;;-1.50;99.90;;;;;;5037293;28;20376;-63
2022/12/18 11:24:28;;;;;;;12.48;8.65;;;-1.70;99.90;;;;;;5033804;28;20041;-64
2022/12/18 11:26:54;;;;;;;12.55;8.32;;;-1.80;99.90;;;;;;5037735;28;20075;-63
2022/12/18 11:29:28;;;;;;;13.05;9.30;;;-1.80;99.90;;;;;;5040017;28;20072;-62
2022/12/18 11:32:22;;;;;;;15.15;9.95;;;-1.90;99.90;;;;;;5038533;28;20478;-63
2022/12/18 11:34:51;;;;;;;;;;;-1.90;99.90;;;;;;5020994;28;20045;-62
2022/12/18 11:37:19;;;;;;;9.02;6.30;;;-1.90;99.90;;;;;;5036427;28;19968;-63
2022/12/18 11:40:13;;;;;;;8.13;5.53;;;-1.90;99.90;;;;;;5015432;28;20156;-64
2022/12/18 11:42:44;;;;;;;;;;;-1.80;99.90;;;;;;5037987;28;20139;-63
2022/12/18 11:45:13;;;;;;;11.68;7.60;;;-1.90;99.90;;;;;;5035132;28;19963;-64
2022/12/18 11:47:52;;;;;;;13.82;9.05;;;-1.80;99.90;;;;;;5036500;28;20083;-63
2022/12/18 11:50:22;;;;;;;13.23;9.48;;;-1.80;99.90;;;;;;5040992;28;20372;-61
2022/12/18 11:52:47;;;;;;;13.25;8.88;;;-1.70;99.90;;;;;;5039230;28;20152;-64
2022/12/18 11:55:39;;;;;;;13.05;8.63;;;-1.60;99.90;;;;;;5034769;28;20044;-62
2022/12/18 11:58:05;;;;;;;15.82;7.65;;;-1.50;99.90;;;;;;5018679;28;20041;-64
2022/12/18 12:00:31;;;;;;;13.15;8.45;;;-1.50;99.90;;;;;;5037090;28;20204;-63
2022/12/18 12:03:17;;;;;;;11.23;7.30;;;-1.40;99.90;;;;;;5037058;28;20672;-64
2022/12/18 12:06:05;;;;;;;12.68;7.57;;;-1.40;99.90;;;;;;5034581;28;20037;-63
2022/12/18 12:09:10;;;;;;;15.25;7.82;;;-1.40;99.90;;;;;;5037274;28;20282;-64
2022/12/18 12:11:44;;;;;;;11.65;7.72;;;-1.30;99.90;;;;;;5005465;28;20695;-64
2022/12/18 12:14:37;;;;;;;10.13;8.10;;;-1.40;99.90;;;;;;5019690;28;20041;-64
2022/12/18 12:17:19;;;;;;;11.25;7.43;;;-1.30;99.90;;;;;;5035025;28;20063;-64
2022/12/18 12:20:02;;;;;;;11.65;7.63;;;-1.30;99.90;;;;;;5034502;28;20503;-64
2022/12/18 12:22:37;;;;;;;11.43;6.95;;;-1.30;99.90;;;;;;5066412;28;20041;-63
2022/12/18 12:25:35;;;;;;;12.57;8.45;;;-1.30;99.90;;;;;;5036819;28;20045;-64
2022/12/18 12:28:23;;;;;;;14.25;8.32;;;-1.20;99.90;;;;;;5061484;28;20057;-64
2022/12/18 12:31:04;;;;;;;13.55;8.98;;;-1.20;99.90;;;;;;5035011;28;20040;-62
2022/12/18 12:33:51;;;;;;;15.05;9.95;;;-1.20;99.90;;;;;;5036927;28;20048;-63
2022/12/18 12:36:43;;;;;;;15.80;9.00;;;-1.20;99.90;;;;;;5034669;28;20047;-63
2022/12/18 12:39:15;;;;;;;10.80;8.25;;;-1.20;99.90;;;;;;5035546;28;20045;-61
2022/12/18 12:44:48;;;;;;;12.77;8.10;;;-1.10;99.90;;;;;;5025528;28;20053;-61
2022/12/18 12:47:33;;;;;;;11.52;6.95;;;-1.10;99.90;;;;;;5039181;28;20055;-61